Time;durP1;ratioP1;P1;durP2;ratioP2;P2;SDS_P1;SDS_P2;PMS_P1;PMS_P2;Temp;Humidity;BMP_temperature;BMP_pressure;BME280_temperature;BME280_humidity;BME280_pressure;Samples;Min_cycle;Max_cycle;Signal;HPM_P1;HPM_P2
2021/10/31 00:00:38;;;;;;;1.30;1.30;;;18.50;68.00;;;;;;5054237;28;20254;-60
2021/10/31 00:03:03;;;;;;;1.30;1.17;;;18.50;68.00;;;;;;5054166;28;20230;-60
2021/10/31 00:05:29;;;;;;;1.30;1.20;;;18.50;67.90;;;;;;5053238;28;20664;-59
2021/10/31 00:07:54;;;;;;;1.70;1.60;;;18.50;67.90;;;;;;5054137;28;20167;-60
2021/10/31 00:10:20;;;;;;;1.30;1.20;;;18.50;67.90;;;;;;5054114;28;20175;-59
2021/10/31 00:12:46;;;;;;;1.40;1.30;;;18.40;67.90;;;;;;5053351;28;20175;-59
2021/10/31 00:15:12;;;;;;;1.40;1.30;;;18.40;67.90;;;;;;5053964;28;20636;-60
2021/10/31 00:17:37;;;;;;;1.50;1.40;;;18.40;67.80;;;;;;5054040;28;20179;-59
2021/10/31 00:20:04;;;;;;;1.75;1.60;;;18.40;67.90;;;;;;5053477;28;20171;-59
2021/10/31 00:22:30;;;;;;;1.67;1.52;;;18.40;67.90;;;;;;5053587;28;20258;-59
2021/10/31 00:24:55;;;;;;;1.60;1.50;;;18.40;67.80;;;;;;5053878;28;20360;-59
2021/10/31 00:27:21;;;;;;;2.08;1.38;;;18.40;67.80;;;;;;5053113;28;20179;-60
2021/10/31 00:29:46;;;;;;;1.38;1.27;;;18.40;67.80;;;;;;5053659;28;20173;-60
2021/10/31 00:32:12;;;;;;;1.20;1.10;;;18.40;67.80;;;;;;5053804;28;20178;-60
2021/10/31 00:34:37;;;;;;;1.60;1.35;;;18.40;67.80;;;;;;5052788;28;20167;-60
2021/10/31 00:37:03;;;;;;;1.63;1.50;;;18.40;67.80;;;;;;5053651;28;20250;-60
2021/10/31 00:39:29;;;;;;;2.13;1.48;;;18.40;67.80;;;;;;5053311;28;20642;-60
2021/10/31 00:41:55;;;;;;;1.33;1.20;;;18.40;67.80;;;;;;5053109;28;20182;-61
2021/10/31 00:44:21;;;;;;;1.52;1.20;;;18.40;67.80;;;;;;5053380;28;20231;-60
2021/10/31 00:46:46;;;;;;;1.83;1.40;;;18.30;67.80;;;;;;5052547;28;20167;-60
2021/10/31 00:49:12;;;;;;;1.33;1.30;;;18.40;67.80;;;;;;5053498;28;20179;-60
2021/10/31 00:51:37;;;;;;;1.45;1.35;;;18.30;67.80;;;;;;5053117;28;20175;-60
2021/10/31 00:54:03;;;;;;;1.55;1.45;;;18.30;67.70;;;;;;5052605;28;20179;-60
2021/10/31 00:56:30;;;;;;;1.70;1.60;;;18.30;67.70;;;;;;5052902;28;20171;-60
2021/10/31 00:58:56;;;;;;;1.75;1.40;;;18.30;67.70;;;;;;5053473;28;20213;-61
2021/10/31 01:01:21;;;;;;;1.30;1.20;;;18.30;67.70;;;;;;5052705;28;20175;-61
2021/10/31 01:03:47;;;;;;;1.63;1.30;;;18.30;67.80;;;;;;5052878;28;20685;-61
2021/10/31 01:06:22;;;;;;;1.52;1.38;;;18.30;67.70;;;;;;5053575;28;20618;-60
2021/10/31 01:09:29;;;;;;;1.50;1.40;;;18.30;67.80;;;;;;5050888;28;20197;-60
2021/10/31 01:12:25;;;;;;;1.42;1.33;;;18.30;67.70;;;;;;5052576;28;20642;-60
2021/10/31 01:15:14;;;;;;;1.67;1.40;;;18.30;67.70;;;;;;5052692;28;20175;-60
2021/10/31 01:17:55;;;;;;;1.42;1.33;;;18.30;67.80;;;;;;5051682;28;20212;-60
2021/10/31 01:20:52;;;;;;;1.60;1.50;;;18.20;67.60;;;;;;5053087;28;20547;-60
2021/10/31 01:23:31;;;;;;;1.40;1.30;;;18.30;67.80;;;;;;5051466;28;20210;-60
2021/10/31 01:26:20;;;;;;;1.48;1.38;;;18.30;67.80;;;;;;5051629;28;20550;-60
2021/10/31 01:29:27;;;;;;;1.60;1.50;;;18.30;67.70;;;;;;5042881;28;20180;-61
2021/10/31 01:32:00;;;;;;;1.48;1.38;;;18.30;67.70;;;;;;5040263;28;20187;-61
2021/10/31 01:34:44;;;;;;;1.50;1.40;;;18.30;67.70;;;;;;5052991;28;20281;-60
2021/10/31 01:37:28;;;;;;;0.90;0.90;;;18.30;67.70;;;;;;5052195;28;20182;-60
2021/10/31 01:40:26;;;;;;;1.50;1.40;;;18.20;67.60;;;;;;5052702;28;20212;-61
2021/10/31 01:43:14;;;;;;;1.52;1.27;;;18.20;67.70;;;;;;5043883;28;20187;-60
2021/10/31 01:45:55;;;;;;;1.85;1.40;;;18.20;67.60;;;;;;5051197;28;20610;-60
2021/10/31 01:48:58;;;;;;;2.08;1.23;;;18.20;67.70;;;;;;5052526;28;20638;-60
2021/10/31 01:51:27;;;;;;;1.40;1.30;;;18.20;67.60;;;;;;5052092;28;20348;-60
2021/10/31 01:54:03;;;;;;;1.42;1.15;;;18.20;67.60;;;;;;5051029;28;20175;-60
2021/10/31 01:56:29;;;;;;;1.75;1.45;;;18.20;67.60;;;;;;5051222;28;20229;-61
2021/10/31 01:59:06;;;;;;;1.45;1.33;;;18.20;67.60;;;;;;5051638;28;20183;-60
2021/10/31 02:01:32;;;;;;;1.50;1.40;;;18.20;67.60;;;;;;5052518;28;20174;-60
2021/10/31 02:03:59;;;;;;;2.50;1.55;;;18.20;67.60;;;;;;5051207;28;20663;-60
2021/10/31 02:06:25;;;;;;;1.67;1.40;;;18.20;67.60;;;;;;5050677;28;20186;-60
2021/10/31 02:08:50;;;;;;;1.10;1.10;;;18.20;67.60;;;;;;5051006;28;20580;-58
2021/10/31 02:11:16;;;;;;;1.98;1.55;;;18.20;67.60;;;;;;5051536;28;20181;-59
2021/10/31 02:13:43;;;;;;;1.50;1.40;;;18.20;67.60;;;;;;5051132;28;20213;-60
2021/10/31 02:16:08;;;;;;;1.30;1.30;;;18.20;67.60;;;;;;5051150;28;20178;-59
2021/10/31 02:18:34;;;;;;;1.50;1.40;;;18.10;67.60;;;;;;5050241;28;20191;-60
2021/10/31 02:20:59;;;;;;;1.40;1.30;;;18.20;67.60;;;;;;5051214;28;20202;-60
2021/10/31 02:23:25;;;;;;;2.10;1.23;;;18.20;67.60;;;;;;5051168;28;20784;-60
2021/10/31 02:25:50;;;;;;;1.10;1.10;;;18.10;67.50;;;;;;5051349;28;20171;-60
2021/10/31 02:28:16;;;;;;;1.05;1.05;;;18.20;67.50;;;;;;5051280;28;20285;-60
2021/10/31 02:30:42;;;;;;;1.85;1.75;;;18.10;67.50;;;;;;5052031;28;20217;-60
2021/10/31 02:33:07;;;;;;;1.50;1.40;;;18.10;67.50;;;;;;5051398;28;20174;-60
2021/10/31 02:35:33;;;;;;;1.10;1.10;;;18.10;67.40;;;;;;5055127;28;20182;-61
2021/10/31 02:37:59;;;;;;;4.45;1.75;;;18.10;67.50;;;;;;5055986;28;20257;-60
2021/10/31 02:40:24;;;;;;;1.30;1.20;;;18.10;67.40;;;;;;5055167;28;20289;-60
2021/10/31 02:42:50;;;;;;;1.55;1.45;;;18.10;67.40;;;;;;5055309;28;20182;-59
2021/10/31 02:45:16;;;;;;;1.27;1.13;;;18.10;67.40;;;;;;5056097;28;20254;-60
2021/10/31 02:47:58;;;;;;;2.28;1.38;;;18.10;67.50;;;;;;5054747;28;20511;-60
2021/10/31 02:50:29;;;;;;;1.40;1.30;;;18.10;67.50;;;;;;5054616;28;20621;-59
2021/10/31 02:53:31;;;;;;;1.13;1.13;;;18.00;67.30;;;;;;5055583;28;20638;-60
2021/10/31 02:56:18;;;;;;;1.77;1.67;;;18.10;67.40;;;;;;5049041;28;20620;-60
2021/10/31 02:59:06;;;;;;;1.27;1.17;;;18.10;67.50;;;;;;5055328;28;20601;-60
2021/10/31 03:01:32;;;;;;;1.40;1.30;;;18.10;67.50;;;;;;5053517;28;20202;-60
2021/10/31 03:03:57;;;;;;;1.33;1.23;;;18.00;67.30;;;;;;5054106;28;20673;-60
2021/10/31 03:06:23;;;;;;;1.13;1.10;;;18.00;67.30;;;;;;5054385;28;20167;-59
2021/10/31 03:08:48;;;;;;;1.38;1.27;;;18.00;67.30;;;;;;5053713;28;20194;-60
2021/10/31 03:11:14;;;;;;;1.25;1.23;;;18.00;67.30;;;;;;5055576;28;20183;-59
2021/10/31 03:13:40;;;;;;;1.08;1.05;;;18.00;67.30;;;;;;5055175;28;20171;-60
2021/10/31 03:16:06;;;;;;;1.00;1.00;;;18.10;67.40;;;;;;5054747;28;20308;-59
2021/10/31 03:18:32;;;;;;;1.13;1.10;;;18.00;67.30;;;;;;5055138;28;20197;-60
2021/10/31 03:20:57;;;;;;;1.30;1.20;;;18.10;67.40;;;;;;5055175;28;20650;-61
2021/10/31 03:23:23;;;;;;;1.27;1.17;;;18.00;67.30;;;;;;5054228;28;20212;-59
2021/10/31 03:25:48;;;;;;;1.50;1.40;;;18.00;67.30;;;;;;5054259;28;20183;-60
2021/10/31 03:28:14;;;;;;;1.08;1.08;;;18.00;67.30;;;;;;5054730;28;20194;-60
2021/10/31 03:30:40;;;;;;;1.50;1.40;;;18.00;67.40;;;;;;5054116;28;20229;-60
2021/10/31 03:33:05;;;;;;;1.30;1.20;;;18.00;67.30;;;;;;5054900;28;20262;-60
2021/10/31 03:35:30;;;;;;;1.30;1.20;;;18.00;67.30;;;;;;5054582;28;20175;-60
2021/10/31 03:37:56;;;;;;;1.35;1.25;;;18.00;67.30;;;;;;5054436;28;20182;-60
2021/10/31 03:40:22;;;;;;;0.95;0.90;;;18.00;67.40;;;;;;5054973;28;20511;-59
2021/10/31 03:42:47;;;;;;;1.05;1.00;;;18.00;67.30;;;;;;5053535;28;20545;-58
2021/10/31 03:45:13;;;;;;;1.05;1.02;;;18.00;67.30;;;;;;5054159;28;20273;-60
2021/10/31 03:47:46;;;;;;;1.30;1.20;;;18.00;67.30;;;;;;5054465;28;20205;-59
2021/10/31 03:50:12;;;;;;;2.08;1.58;;;18.00;67.30;;;;;;5054183;28;20175;-59
2021/10/31 03:52:37;;;;;;;1.73;1.30;;;18.00;67.40;;;;;;5054352;28;20182;-60
2021/10/31 03:55:03;;;;;;;1.00;1.00;;;18.00;67.30;;;;;;5054511;28;20587;-60
2021/10/31 03:57:29;;;;;;;1.17;1.10;;;17.90;67.30;;;;;;5053350;28;20192;-60
2021/10/31 03:59:54;;;;;;;1.23;1.13;;;17.90;67.30;;;;;;5054294;28;20207;-60
2021/10/31 04:02:20;;;;;;;0.90;0.90;;;17.90;67.30;;;;;;5054421;28;20662;-59
2021/10/31 04:04:45;;;;;;;1.45;1.15;;;17.90;67.30;;;;;;5053343;28;20210;-60
2021/10/31 04:07:11;;;;;;;1.38;1.27;;;17.90;67.30;;;;;;5054450;28;20167;-59
2021/10/31 04:09:36;;;;;;;1.50;1.40;;;17.90;67.30;;;;;;5054096;28;20539;-59
2021/10/31 04:12:02;;;;;;;1.27;1.17;;;17.90;67.30;;;;;;5053434;28;20668;-59
2021/10/31 04:14:28;;;;;;;1.27;1.17;;;17.90;67.30;;;;;;5054376;28;20179;-60
2021/10/31 04:16:54;;;;;;;1.00;1.00;;;17.90;67.30;;;;;;5054151;28;20333;-59
2021/10/31 04:19:19;;;;;;;1.58;1.35;;;17.90;67.30;;;;;;5053383;28;20175;-60
2021/10/31 04:21:45;;;;;;;1.20;1.10;;;17.90;67.30;;;;;;5053798;28;20179;-59
2021/10/31 04:24:10;;;;;;;1.20;1.10;;;17.90;67.30;;;;;;5053737;28;20260;-59
2021/10/31 04:26:36;;;;;;;0.98;0.98;;;17.90;67.30;;;;;;5052858;28;20171;-60
2021/10/31 04:29:01;;;;;;;1.05;1.05;;;17.90;67.30;;;;;;5053821;28;20171;-59
2021/10/31 04:31:26;;;;;;;1.10;1.00;;;17.90;67.30;;;;;;5054543;28;20602;-60
2021/10/31 04:33:52;;;;;;;1.00;1.00;;;17.90;67.30;;;;;;5053009;28;20214;-60
2021/10/31 04:36:18;;;;;;;1.00;0.90;;;17.90;67.30;;;;;;5053790;28;20254;-59
2021/10/31 04:38:46;;;;;;;1.20;1.10;;;17.90;67.30;;;;;;5053498;28;20184;-59
2021/10/31 04:41:12;;;;;;;1.35;1.25;;;17.90;67.30;;;;;;5052951;28;20182;-59
2021/10/31 04:43:39;;;;;;;1.00;1.00;;;17.90;67.30;;;;;;5052973;28;20219;-60
2021/10/31 04:46:04;;;;;;;0.80;0.80;;;17.90;67.30;;;;;;5053073;28;20193;-59
2021/10/31 04:48:30;;;;;;;1.25;1.15;;;17.80;67.30;;;;;;5053268;28;20175;-59
2021/10/31 04:50:55;;;;;;;1.02;1.00;;;17.80;67.30;;;;;;5053451;28;20171;-59
2021/10/31 04:53:21;;;;;;;1.02;1.02;;;17.80;67.20;;;;;;5052628;28;20175;-59
2021/10/31 04:55:46;;;;;;;1.10;1.08;;;17.80;67.20;;;;;;5052997;28;20634;-60
2021/10/31 04:58:12;;;;;;;1.20;1.13;;;17.80;67.20;;;;;;5052869;28;20631;-59
2021/10/31 05:00:37;;;;;;;1.10;1.10;;;17.80;67.30;;;;;;5052446;28;20190;-61
2021/10/31 05:03:03;;;;;;;1.00;1.00;;;17.80;67.30;;;;;;5053304;28;20253;-60
2021/10/31 05:05:29;;;;;;;1.20;1.10;;;17.80;67.20;;;;;;5053117;28;20642;-60
2021/10/31 05:07:55;;;;;;;1.27;1.20;;;17.80;67.20;;;;;;5052581;28;20176;-60
2021/10/31 05:10:22;;;;;;;1.23;1.13;;;17.80;67.30;;;;;;5053206;28;20194;-60
2021/10/31 05:12:48;;;;;;;0.90;0.90;;;17.80;67.30;;;;;;5053004;28;20183;-60
2021/10/31 05:15:13;;;;;;;1.10;1.10;;;17.80;67.30;;;;;;5052415;28;20254;-61
2021/10/31 05:17:40;;;;;;;1.30;1.20;;;17.80;67.20;;;;;;5052977;28;20175;-60
2021/10/31 05:20:06;;;;;;;1.02;1.02;;;17.80;67.20;;;;;;5053223;28;20202;-60
2021/10/31 05:22:32;;;;;;;0.95;0.95;;;17.80;67.20;;;;;;5051978;28;20195;-60
2021/10/31 05:24:57;;;;;;;1.42;1.30;;;17.80;67.20;;;;;;5052769;28;20199;-60
2021/10/31 05:27:23;;;;;;;1.10;1.10;;;17.80;67.20;;;;;;5052944;28;20163;-60
2021/10/31 05:29:48;;;;;;;1.10;1.10;;;17.80;67.20;;;;;;5051785;28;20236;-61
2021/10/31 05:32:14;;;;;;;1.10;1.10;;;17.80;67.20;;;;;;5052904;28;20179;-60
2021/10/31 05:34:40;;;;;;;1.00;1.00;;;17.80;67.20;;;;;;5052655;28;20257;-60
2021/10/31 05:37:05;;;;;;;1.10;1.10;;;17.80;67.20;;;;;;5052266;28;20254;-60
2021/10/31 05:39:31;;;;;;;0.90;0.90;;;17.80;67.20;;;;;;5052477;28;20178;-60
2021/10/31 05:41:56;;;;;;;0.82;0.82;;;17.70;67.20;;;;;;5052814;28;20673;-60
2021/10/31 05:44:22;;;;;;;0.98;0.98;;;17.80;67.20;;;;;;5051653;28;20586;-60
2021/10/31 05:46:47;;;;;;;1.10;1.02;;;17.80;67.20;;;;;;5052441;28;20171;-60
2021/10/31 05:49:13;;;;;;;1.25;1.00;;;17.70;67.20;;;;;;5051946;28;20514;-60
2021/10/31 05:51:39;;;;;;;1.42;1.33;;;17.70;67.20;;;;;;5052363;28;20178;-59
2021/10/31 05:54:04;;;;;;;1.30;1.20;;;17.70;67.20;;;;;;5052706;28;20646;-59
2021/10/31 05:56:30;;;;;;;1.35;1.25;;;17.70;67.20;;;;;;5051669;28;20171;-59
2021/10/31 05:58:55;;;;;;;1.00;1.00;;;17.70;67.20;;;;;;5052725;28;20178;-60
2021/10/31 06:01:21;;;;;;;1.20;1.10;;;17.70;67.20;;;;;;5052477;28;20182;-60
2021/10/31 06:03:47;;;;;;;2.05;1.42;;;17.70;67.20;;;;;;5051476;28;20309;-60
2021/10/31 06:06:12;;;;;;;1.08;1.00;;;17.70;67.20;;;;;;5052494;28;20177;-60
2021/10/31 06:08:38;;;;;;;1.38;1.17;;;17.70;67.20;;;;;;5053857;28;20175;-59
2021/10/31 06:11:03;;;;;;;1.00;1.00;;;17.70;67.20;;;;;;5055805;28;20174;-59
2021/10/31 06:13:29;;;;;;;1.00;1.00;;;17.60;67.10;;;;;;5055106;28;20174;-60
2021/10/31 06:15:55;;;;;;;1.02;0.93;;;17.70;67.20;;;;;;5055448;28;20185;-60
2021/10/31 06:18:20;;;;;;;0.90;0.90;;;17.70;67.20;;;;;;5055531;28;20167;-60
2021/10/31 06:20:46;;;;;;;1.30;1.20;;;17.70;67.20;;;;;;5055938;28;20282;-59
2021/10/31 06:23:12;;;;;;;1.17;1.08;;;17.70;67.20;;;;;;5056103;28;20175;-59
2021/10/31 06:25:37;;;;;;;1.10;1.10;;;17.70;67.20;;;;;;5055447;28;20187;-60
2021/10/31 06:28:03;;;;;;;1.00;1.00;;;17.70;67.20;;;;;;5056213;28;20175;-59
2021/10/31 06:30:29;;;;;;;1.20;1.15;;;17.70;67.20;;;;;;5056003;28;20175;-59
2021/10/31 06:32:54;;;;;;;0.98;0.98;;;17.70;67.20;;;;;;5055437;28;20260;-59
2021/10/31 06:35:20;;;;;;;1.08;1.00;;;17.70;67.20;;;;;;5056033;28;20681;-59
2021/10/31 06:37:47;;;;;;;1.13;1.10;;;17.70;67.20;;;;;;5055629;28;20187;-60
2021/10/31 06:40:13;;;;;;;1.10;1.00;;;17.60;67.10;;;;;;5055191;28;20715;-60
2021/10/31 06:42:38;;;;;;;1.05;1.05;;;17.60;67.10;;;;;;5055788;28;20198;-60
2021/10/31 06:45:05;;;;;;;1.17;1.08;;;17.60;67.10;;;;;;5055629;28;20330;-59
2021/10/31 06:47:31;;;;;;;1.13;1.08;;;17.60;67.10;;;;;;5054955;28;20669;-59
2021/10/31 06:49:57;;;;;;;1.30;1.23;;;17.70;67.20;;;;;;5055979;28;20183;-59
2021/10/31 06:52:23;;;;;;;1.27;1.15;;;17.60;67.10;;;;;;5055658;28;20171;-58
2021/10/31 06:54:49;;;;;;;1.10;1.10;;;17.60;67.10;;;;;;5054685;28;20206;-59
2021/10/31 06:57:14;;;;;;;1.30;1.20;;;17.60;67.10;;;;;;5055792;28;20688;-60
2021/10/31 06:59:40;;;;;;;1.20;1.10;;;17.60;67.10;;;;;;5054766;28;20286;-60
2021/10/31 07:02:05;;;;;;;1.35;1.33;;;17.60;67.10;;;;;;5055638;28;20170;-60
2021/10/31 07:04:31;;;;;;;1.20;1.15;;;17.60;67.10;;;;;;5055130;28;20312;-59
2021/10/31 07:06:57;;;;;;;1.10;1.10;;;17.60;67.10;;;;;;5054711;28;20182;-58
2021/10/31 07:09:22;;;;;;;1.38;1.27;;;17.60;67.10;;;;;;5055677;28;20183;-59
2021/10/31 07:11:48;;;;;;;1.50;1.40;;;17.60;67.10;;;;;;5055347;28;20636;-59
2021/10/31 07:14:13;;;;;;;1.05;1.05;;;17.60;67.10;;;;;;5054865;28;20197;-61
2021/10/31 07:16:39;;;;;;;1.17;1.10;;;17.60;67.10;;;;;;5055137;28;20661;-60
2021/10/31 07:19:04;;;;;;;1.30;1.20;;;17.60;68.00;;;;;;5054926;28;20538;-60
2021/10/31 07:21:30;;;;;;;1.20;1.10;;;17.60;67.10;;;;;;5053656;28;20178;-60
2021/10/31 07:23:56;;;;;;;1.45;1.35;;;17.60;67.10;;;;;;5055051;28;20214;-62
2021/10/31 07:26:21;;;;;;;1.30;1.20;;;17.60;67.10;;;;;;5055380;28;20657;-61
2021/10/31 07:28:47;;;;;;;1.10;1.10;;;17.60;67.10;;;;;;5054145;28;20178;-61
2021/10/31 07:31:14;;;;;;;1.20;1.10;;;17.60;67.10;;;;;;5055177;28;20174;-61
2021/10/31 07:33:39;;;;;;;0.93;0.93;;;17.60;67.20;;;;;;5054783;28;20575;-61
2021/10/31 07:36:05;;;;;;;1.00;1.00;;;17.60;67.00;;;;;;5054209;28;20181;-60
2021/10/31 07:38:32;;;;;;;1.02;1.02;;;17.60;67.00;;;;;;5054867;28;20179;-61
2021/10/31 07:40:57;;;;;;;1.20;1.20;;;17.60;67.00;;;;;;5054929;28;20266;-60
2021/10/31 07:43:23;;;;;;;1.10;1.10;;;17.60;66.90;;;;;;5053854;28;20310;-60
2021/10/31 07:45:48;;;;;;;1.38;1.23;;;17.60;66.90;;;;;;5054741;28;20202;-59
2021/10/31 07:48:14;;;;;;;0.90;0.90;;;17.60;66.90;;;;;;5054766;28;20191;-60
2021/10/31 07:50:39;;;;;;;1.70;1.30;;;17.60;67.00;;;;;;5053608;28;20175;-64
2021/10/31 07:53:09;;;;;;;3.17;1.30;;;17.60;67.10;;;;;;5054680;28;20175;-61
2021/10/31 07:55:37;;;;;;;3.38;1.50;;;17.70;67.80;;;;;;5054507;28;20183;-62
2021/10/31 07:58:03;;;;;;;2.05;1.65;;;17.70;67.40;;;;;;5054008;28;20175;-62
2021/10/31 08:00:29;;;;;;;2.00;1.27;;;17.70;67.40;;;;;;5054294;28;20630;-62
2021/10/31 08:02:54;;;;;;;2.75;1.70;;;17.70;67.40;;;;;;5053592;28;20186;-62
2021/10/31 08:05:21;;;;;;;3.70;1.67;;;17.70;67.50;;;;;;5054218;28;20214;-62
2021/10/31 08:07:46;;;;;;;3.17;1.90;;;17.70;67.40;;;;;;5053970;28;20587;-61
2021/10/31 08:10:12;;;;;;;1.70;1.55;;;17.70;67.30;;;;;;5053589;28;20179;-61
2021/10/31 08:12:37;;;;;;;2.50;1.90;;;17.70;67.40;;;;;;5054067;28;20168;-61
2021/10/31 08:15:03;;;;;;;5.22;1.92;;;17.70;67.30;;;;;;5054182;28;20174;-62
2021/10/31 08:17:29;;;;;;;2.85;1.80;;;17.70;67.20;;;;;;5053253;28;20175;-62
2021/10/31 08:19:54;;;;;;;4.13;1.60;;;17.70;67.80;;;;;;5054094;28;20182;-63
2021/10/31 08:22:20;;;;;;;1.83;1.70;;;17.70;67.60;;;;;;5053993;28;20179;-62
2021/10/31 08:24:46;;;;;;;2.92;1.90;;;17.70;67.50;;;;;;5052808;28;20210;-62
2021/10/31 08:27:11;;;;;;;2.33;1.73;;;17.80;67.50;;;;;;5053857;28;20178;-62
2021/10/31 08:29:37;;;;;;;3.25;1.50;;;17.80;67.30;;;;;;5053465;28;20191;-63
2021/10/31 08:32:03;;;;;;;5.07;1.55;;;17.90;67.30;;;;;;5053038;28;20171;-62
2021/10/31 08:34:28;;;;;;;2.83;1.70;;;17.90;67.10;;;;;;5053616;28;20179;-62
2021/10/31 08:36:54;;;;;;;4.70;1.63;;;17.90;67.10;;;;;;5053625;28;20668;-63
2021/10/31 08:39:19;;;;;;;2.35;1.90;;;17.90;67.10;;;;;;5053147;28;20171;-64
2021/10/31 08:41:48;;;;;;;1.95;1.75;;;18.00;67.20;;;;;;5053336;28;20209;-64
2021/10/31 08:44:13;;;;;;;2.92;1.60;;;18.00;67.10;;;;;;5053287;28;20238;-63
2021/10/31 08:46:39;;;;;;;1.98;1.77;;;18.00;67.10;;;;;;5052592;28;20167;-63
2021/10/31 08:49:04;;;;;;;3.00;2.08;;;18.00;67.10;;;;;;5053440;28;20201;-63
2021/10/31 08:51:30;;;;;;;3.97;2.17;;;18.10;66.80;;;;;;5053080;28;20682;-63
2021/10/31 08:53:56;;;;;;;2.03;1.60;;;18.20;66.70;;;;;;5052821;28;20532;-60
2021/10/31 08:56:25;;;;;;;7.20;2.30;;;18.20;66.80;;;;;;5053546;28;20210;-60
2021/10/31 08:58:51;;;;;;;3.25;1.65;;;18.20;67.00;;;;;;5053176;28;20190;-60
2021/10/31 09:01:16;;;;;;;4.10;2.10;;;18.10;67.10;;;;;;5052774;28;20167;-60
2021/10/31 09:03:42;;;;;;;2.80;2.00;;;18.10;67.30;;;;;;5053062;28;20214;-62
2021/10/31 09:06:13;;;;;;;5.85;2.15;;;18.10;67.40;;;;;;5052817;28;20175;-61
2021/10/31 09:08:42;;;;;;;3.50;1.75;;;18.10;67.40;;;;;;5053224;28;20179;-61
2021/10/31 09:11:08;;;;;;;3.08;1.90;;;18.10;67.20;;;;;;5053408;28;20182;-63
2021/10/31 09:13:34;;;;;;;5.20;2.28;;;18.20;67.10;;;;;;5052231;28;20258;-62
2021/10/31 09:16:00;;;;;;;5.20;2.25;;;18.20;67.20;;;;;;5053054;28;20202;-62
2021/10/31 09:18:26;;;;;;;5.72;1.90;;;18.20;67.10;;;;;;5052895;28;20258;-63
2021/10/31 09:20:52;;;;;;;4.97;2.00;;;18.20;67.10;;;;;;5051862;28;20647;-62
2021/10/31 09:23:18;;;;;;;4.00;1.95;;;18.30;67.20;;;;;;5053119;28;20179;-65
2021/10/31 09:25:46;;;;;;;5.72;2.13;;;18.30;67.40;;;;;;5052861;28;20513;-64
2021/10/31 09:28:12;;;;;;;5.10;2.03;;;18.30;67.00;;;;;;5052297;28;20171;-65
2021/10/31 09:30:39;;;;;;;3.15;2.00;;;18.40;66.90;;;;;;5052588;28;20181;-65
2021/10/31 09:33:05;;;;;;;4.05;2.00;;;18.40;66.90;;;;;;5052834;28;20190;-65
2021/10/31 09:35:32;;;;;;;3.13;2.17;;;18.40;66.80;;;;;;5051954;28;20175;-67
2021/10/31 09:38:01;;;;;;;2.58;1.70;;;18.40;66.80;;;;;;5052962;28;20240;-67
2021/10/31 09:40:26;;;;;;;3.15;1.88;;;18.40;66.80;;;;;;5053413;28;20179;-71
2021/10/31 09:42:53;;;;;;;5.82;2.13;;;18.50;67.00;;;;;;5060668;28;20692;-68
2021/10/31 09:45:22;;;;;;;4.75;2.10;;;18.40;66.90;;;;;;5061632;28;20221;-69
2021/10/31 09:47:55;;;;;;;2.22;1.70;;;18.40;67.00;;;;;;5062037;28;20174;-68
2021/10/31 09:50:21;;;;;;;3.53;2.10;;;18.40;67.10;;;;;;5060660;28;20236;-68
2021/10/31 09:52:47;;;;;;;3.75;1.90;;;18.50;67.30;;;;;;5062150;28;20625;-67
2021/10/31 09:55:12;;;;;;;2.72;1.88;;;18.50;67.30;;;;;;5059531;28;20174;-68
2021/10/31 09:57:38;;;;;;;2.53;1.80;;;18.50;67.50;;;;;;5059179;28;20171;-67
2021/10/31 10:00:04;;;;;;;1.95;1.80;;;18.50;67.60;;;;;;5061109;28;20174;-67
2021/10/31 10:05:20;;;;;;;3.03;2.22;;;18.50;68.30;;;;;;5062063;28;20691;-69
2021/10/31 10:07:47;;;;;;;3.88;1.80;;;18.60;67.50;;;;;;5062036;28;20202;-70
2021/10/31 10:10:13;;;;;;;3.97;1.60;;;18.60;67.50;;;;;;5061707;28;20227;-67
2021/10/31 10:12:39;;;;;;;2.00;1.80;;;18.60;67.50;;;;;;5060450;28;20182;-68
2021/10/31 10:15:07;;;;;;;3.50;1.92;;;18.60;67.40;;;;;;5059911;28;20194;-67
2021/10/31 10:17:50;;;;;;;1.88;1.77;;;18.60;67.30;;;;;;5061317;28;20209;-70
2021/10/31 10:20:15;;;;;;;5.68;1.70;;;18.60;67.30;;;;;;5062200;28;20170;-69
2021/10/31 10:22:41;;;;;;;2.97;1.73;;;18.60;67.30;;;;;;5060347;28;20210;-61
2021/10/31 10:25:07;;;;;;;2.95;1.80;;;18.60;67.40;;;;;;5058281;28;20206;-60
2021/10/31 10:27:38;;;;;;;2.15;1.98;;;18.60;67.30;;;;;;5059112;28;20533;-60
2021/10/31 10:30:13;;;;;;;5.53;1.80;;;18.60;67.40;;;;;;5044210;28;20179;-66
2021/10/31 10:32:51;;;;;;;2.45;2.00;;;18.60;67.40;;;;;;5059186;28;20194;-68
2021/10/31 10:35:18;;;;;;;1.98;1.67;;;18.70;67.30;;;;;;5059912;28;20190;-67
2021/10/31 10:37:43;;;;;;;3.60;2.22;;;18.70;67.20;;;;;;5060022;28;20697;-68
2021/10/31 10:40:11;;;;;;;2.97;1.70;;;18.70;67.10;;;;;;5060474;28;20270;-67
2021/10/31 10:42:44;;;;;;;2.28;1.70;;;18.70;67.10;;;;;;5059602;28;20171;-66
2021/10/31 10:45:12;;;;;;;3.33;1.40;;;18.80;67.10;;;;;;5059267;28;20222;-66
2021/10/31 10:47:49;;;;;;;2.55;1.63;;;18.70;67.00;;;;;;5059236;28;20634;-66
2021/10/31 10:50:34;;;;;;;3.08;1.88;;;18.80;67.10;;;;;;5059063;28;20190;-67
2021/10/31 10:53:00;;;;;;;3.33;1.48;;;18.80;67.00;;;;;;5059527;28;20194;-65
2021/10/31 10:55:30;;;;;;;2.03;1.45;;;18.80;67.00;;;;;;5064079;28;20199;-67
2021/10/31 10:57:57;;;;;;;2.10;1.60;;;18.80;66.90;;;;;;5064601;28;20179;-68
2021/10/31 11:00:23;;;;;;;1.70;1.60;;;18.90;66.80;;;;;;5074422;28;20206;-64
2021/10/31 11:03:00;;;;;;;3.72;1.50;;;18.90;66.90;;;;;;5075265;28;20224;-66
2021/10/31 11:05:27;;;;;;;2.25;1.60;;;18.90;67.00;;;;;;5073995;28;20649;-68
2021/10/31 11:07:53;;;;;;;4.60;1.67;;;18.90;67.00;;;;;;5074362;28;20660;-66
2021/10/31 11:10:26;;;;;;;3.58;1.98;;;19.00;67.20;;;;;;5075329;28;20166;-66
2021/10/31 11:12:57;;;;;;;2.50;1.90;;;19.00;67.00;;;;;;5074467;28;20170;-65
2021/10/31 11:15:30;;;;;;;3.05;1.60;;;18.90;67.00;;;;;;5075596;28;20182;-65
2021/10/31 11:17:57;;;;;;;3.22;1.90;;;18.90;67.00;;;;;;5075346;28;20182;-65
2021/10/31 11:20:32;;;;;;;2.90;1.63;;;18.90;67.10;;;;;;5074374;28;20189;-65
2021/10/31 11:23:00;;;;;;;3.53;1.90;;;18.90;67.20;;;;;;5075156;28;20492;-64
2021/10/31 11:25:27;;;;;;;2.47;1.95;;;18.90;67.20;;;;;;5074835;28;20297;-65
2021/10/31 11:27:54;;;;;;;3.40;1.80;;;18.90;67.10;;;;;;5074267;28;20178;-64
2021/10/31 11:30:20;;;;;;;2.13;1.77;;;19.00;66.90;;;;;;5075117;28;20261;-66
2021/10/31 11:32:45;;;;;;;3.42;1.67;;;19.10;66.70;;;;;;5074561;28;20217;-66
2021/10/31 11:35:14;;;;;;;4.68;1.60;;;19.10;66.50;;;;;;5074237;28;20206;-62
2021/10/31 11:37:58;;;;;;;4.97;1.70;;;19.10;66.70;;;;;;5074660;28;20178;-67
2021/10/31 11:40:31;;;;;;;1.70;1.60;;;19.10;66.80;;;;;;5073692;28;20174;-66
2021/10/31 11:42:57;;;;;;;3.20;1.88;;;19.00;67.00;;;;;;5072189;28;20189;-66
2021/10/31 11:45:24;;;;;;;2.75;1.52;;;19.00;67.20;;;;;;5073522;28;20210;-66
2021/10/31 11:48:25;;;;;;;2.63;1.80;;;19.00;67.10;;;;;;5074419;28;20167;-66
2021/10/31 11:51:03;;;;;;;1.63;1.23;;;19.00;67.10;;;;;;4992684;28;20603;-65
2021/10/31 11:53:30;;;;;;;2.75;1.60;;;18.90;67.10;;;;;;4992823;28;20185;-66
2021/10/31 11:56:04;;;;;;;2.15;1.30;;;18.90;67.00;;;;;;4992602;28;20187;-65
2021/10/31 11:58:46;;;;;;;2.33;1.40;;;18.90;67.20;;;;;;5015924;28;20187;-66
2021/10/31 12:01:13;;;;;;;2.10;1.73;;;18.90;67.30;;;;;;5074453;28;20170;-68
2021/10/31 12:03:55;;;;;;;1.30;1.20;;;18.90;67.30;;;;;;5073286;28;20202;-67
2021/10/31 12:06:25;;;;;;;2.53;1.35;;;18.80;67.30;;;;;;5073821;28;20633;-65
2021/10/31 12:08:58;;;;;;;1.33;1.23;;;18.80;67.30;;;;;;5073967;28;20202;-64
2021/10/31 12:11:32;;;;;;;1.38;1.10;;;18.70;67.40;;;;;;5073793;28;20220;-64
2021/10/31 12:14:01;;;;;;;2.65;1.50;;;18.70;67.50;;;;;;5074381;28;20174;-67
2021/10/31 12:16:27;;;;;;;3.72;1.70;;;18.70;67.80;;;;;;5073478;28;20167;-65
2021/10/31 12:18:57;;;;;;;6.25;1.95;;;18.70;67.90;;;;;;5073793;28;20202;-66
2021/10/31 12:21:30;;;;;;;4.38;1.35;;;18.70;67.90;;;;;;5072494;28;20545;-65
2021/10/31 12:24:03;;;;;;;2.60;1.80;;;18.70;67.80;;;;;;5073128;28;20229;-65
2021/10/31 12:26:34;;;;;;;3.33;1.67;;;18.70;67.70;;;;;;5073842;28;20189;-64
2021/10/31 12:29:25;;;;;;;2.75;1.30;;;18.70;67.80;;;;;;5073915;28;20253;-64
2021/10/31 12:31:57;;;;;;;3.65;1.98;;;18.70;67.70;;;;;;5072837;28;20175;-65
2021/10/31 12:34:27;;;;;;;2.92;1.52;;;18.70;67.90;;;;;;5073723;28;20179;-66
2021/10/31 12:36:56;;;;;;;2.08;1.40;;;18.70;67.80;;;;;;5073328;28;20704;-65
2021/10/31 12:39:24;;;;;;;3.55;1.92;;;18.70;67.70;;;;;;5072840;28;20181;-65
2021/10/31 12:42:19;;;;;;;2.78;1.30;;;18.70;67.80;;;;;;5073236;28;20171;-66
2021/10/31 12:44:56;;;;;;;2.90;1.33;;;18.60;67.70;;;;;;5072259;28;20237;-65
2021/10/31 12:47:24;;;;;;;1.42;1.33;;;18.70;67.80;;;;;;5073714;28;20170;-65
2021/10/31 12:49:50;;;;;;;4.00;1.33;;;18.70;67.80;;;;;;5073382;28;20175;-64
2021/10/31 12:52:22;;;;;;;1.55;1.20;;;18.60;67.70;;;;;;5072793;28;20194;-61
2021/10/31 12:54:54;;;;;;;1.55;1.10;;;18.70;67.90;;;;;;5073158;28;20175;-64
2021/10/31 12:57:20;;;;;;;2.70;1.20;;;18.60;68.70;;;;;;5069917;28;20622;-67